sensor_id;sensor_type;location;lat;lon;timestamp;P1;durP1;ratioP1;P2;durP2;ratioP2
54460;SDS011;69977;49.414;11.010;2024-01-10T00:01:35;11.57;;;7.23;;
54460;SDS011;69977;49.414;11.010;2024-01-10T00:04:01;12.80;;;7.57;;
54460;SDS011;69977;49.414;11.010;2024-01-10T00:06:27;11.27;;;7.40;;
54460;SDS011;69977;49.414;11.010;2024-01-10T00:08:53;14.40;;;8.47;;
54460;SDS011;69977;49.414;11.010;2024-01-10T00:11:19;12.20;;;7.20;;
54460;SDS011;69977;49.414;11.010;2024-01-10T00:13:46;15.80;;;7.80;;
54460;SDS011;69977;49.414;11.010;2024-01-10T00:16:12;11.43;;;7.23;;
54460;SDS011;69977;49.414;11.010;2024-01-10T00:18:41;11.33;;;7.30;;
54460;SDS011;69977;49.414;11.010;2024-01-10T00:21:07;12.17;;;7.67;;
54460;SDS011;69977;49.414;11.010;2024-01-10T00:23:33;12.80;;;7.27;;
54460;SDS011;69977;49.414;11.010;2024-01-10T00:25:59;15.10;;;8.20;;
54460;SDS011;69977;49.414;11.010;2024-01-10T00:28:26;9.67;;;6.70;;
54460;SDS011;69977;49.414;11.010;2024-01-10T00:30:51;11.73;;;6.57;;
54460;SDS011;69977;49.414;11.010;2024-01-10T00:36:06;13.67;;;7.77;;
54460;SDS011;69977;49.414;11.010;2024-01-10T00:38:32;15.47;;;8.00;;
54460;SDS011;69977;49.414;11.010;2024-01-10T00:40:58;14.90;;;7.73;;
54460;SDS011;69977;49.414;11.010;2024-01-10T00:43:24;13.40;;;7.67;;
54460;SDS011;69977;49.414;11.010;2024-01-10T00:45:50;13.47;;;7.80;;
54460;SDS011;69977;49.414;11.010;2024-01-10T00:48:16;11.97;;;7.97;;
54460;SDS011;69977;49.414;11.010;2024-01-10T00:50:45;12.03;;;7.30;;
54460;SDS011;69977;49.414;11.010;2024-01-10T00:53:11;14.13;;;7.13;;
54460;SDS011;69977;49.414;11.010;2024-01-10T00:55:37;14.47;;;7.97;;
54460;SDS011;69977;49.414;11.010;2024-01-10T00:58:03;11.80;;;7.33;;
54460;SDS011;69977;49.414;11.010;2024-01-10T01:00:29;12.00;;;7.07;;
54460;SDS011;69977;49.414;11.010;2024-01-10T01:02:55;15.70;;;8.00;;
54460;SDS011;69977;49.414;11.010;2024-01-10T01:05:20;14.97;;;8.10;;
54460;SDS011;69977;49.414;11.010;2024-01-10T01:07:47;10.87;;;7.10;;
54460;SDS011;69977;49.414;11.010;2024-01-10T01:10:12;12.53;;;7.30;;
54460;SDS011;69977;49.414;11.010;2024-01-10T01:12:38;13.53;;;7.57;;
54460;SDS011;69977;49.414;11.010;2024-01-10T01:15:05;12.00;;;7.30;;
54460;SDS011;69977;49.414;11.010;2024-01-10T01:17:31;11.17;;;7.53;;
54460;SDS011;69977;49.414;11.010;2024-01-10T01:19:57;14.17;;;7.13;;
54460;SDS011;69977;49.414;11.010;2024-01-10T01:22:23;11.83;;;7.20;;
54460;SDS011;69977;49.414;11.010;2024-01-10T01:24:49;11.90;;;7.23;;
54460;SDS011;69977;49.414;11.010;2024-01-10T01:27:15;13.93;;;7.70;;
54460;SDS011;69977;49.414;11.010;2024-01-10T01:29:40;12.93;;;7.93;;
54460;SDS011;69977;49.414;11.010;2024-01-10T01:32:06;12.07;;;6.73;;
54460;SDS011;69977;49.414;11.010;2024-01-10T01:34:32;15.13;;;7.27;;
54460;SDS011;69977;49.414;11.010;2024-01-10T01:36:58;12.40;;;7.40;;
54460;SDS011;69977;49.414;11.010;2024-01-10T01:39:24;12.37;;;6.93;;
54460;SDS011;69977;49.414;11.010;2024-01-10T01:41:49;13.83;;;7.80;;
54460;SDS011;69977;49.414;11.010;2024-01-10T01:44:15;11.27;;;6.50;;
54460;SDS011;69977;49.414;11.010;2024-01-10T01:46:44;12.33;;;7.27;;
54460;SDS011;69977;49.414;11.010;2024-01-10T01:49:11;12.47;;;7.47;;
54460;SDS011;69977;49.414;11.010;2024-01-10T01:51:37;12.40;;;7.33;;
54460;SDS011;69977;49.414;11.010;2024-01-10T01:54:06;12.23;;;7.00;;
54460;SDS011;69977;49.414;11.010;2024-01-10T01:56:35;13.57;;;7.03;;
54460;SDS011;69977;49.414;11.010;2024-01-10T01:59:02;12.33;;;7.67;;
54460;SDS011;69977;49.414;11.010;2024-01-10T02:01:32;12.97;;;7.23;;
54460;SDS011;69977;49.414;11.010;2024-01-10T02:03:59;14.97;;;7.67;;
54460;SDS011;69977;49.414;11.010;2024-01-10T02:06:26;13.00;;;7.73;;
54460;SDS011;69977;49.414;11.010;2024-01-10T02:08:52;11.23;;;7.03;;
54460;SDS011;69977;49.414;11.010;2024-01-10T02:11:18;10.90;;;7.23;;
54460;SDS011;69977;49.414;11.010;2024-01-10T02:13:46;15.83;;;7.87;;
54460;SDS011;69977;49.414;11.010;2024-01-10T02:16:12;12.57;;;8.03;;
54460;SDS011;69977;49.414;11.010;2024-01-10T02:18:38;11.97;;;7.37;;
54460;SDS011;69977;49.414;11.010;2024-01-10T02:21:04;13.13;;;7.80;;
54460;SDS011;69977;49.414;11.010;2024-01-10T02:23:30;12.77;;;7.87;;
54460;SDS011;69977;49.414;11.010;2024-01-10T02:25:56;18.57;;;7.73;;
54460;SDS011;69977;49.414;11.010;2024-01-10T02:28:22;13.03;;;8.07;;
54460;SDS011;69977;49.414;11.010;2024-01-10T02:30:49;12.53;;;7.37;;
54460;SDS011;69977;49.414;11.010;2024-01-10T02:33:16;13.17;;;7.17;;
54460;SDS011;69977;49.414;11.010;2024-01-10T02:35:42;11.87;;;7.33;;
54460;SDS011;69977;49.414;11.010;2024-01-10T02:38:07;18.77;;;7.53;;
54460;SDS011;69977;49.414;11.010;2024-01-10T02:40:33;12.07;;;7.33;;
54460;SDS011;69977;49.414;11.010;2024-01-10T02:43:02;11.83;;;6.93;;
54460;SDS011;69977;49.414;11.010;2024-01-10T02:45:28;12.43;;;7.70;;
54460;SDS011;69977;49.414;11.010;2024-01-10T02:47:53;11.37;;;6.83;;
54460;SDS011;69977;49.414;11.010;2024-01-10T02:50:19;11.00;;;7.00;;
54460;SDS011;69977;49.414;11.010;2024-01-10T02:52:45;11.17;;;7.33;;
54460;SDS011;69977;49.414;11.010;2024-01-10T02:55:11;13.13;;;7.60;;
54460;SDS011;69977;49.414;11.010;2024-01-10T02:57:37;14.30;;;7.60;;
54460;SDS011;69977;49.414;11.010;2024-01-10T03:00:03;13.57;;;7.63;;
54460;SDS011;69977;49.414;11.010;2024-01-10T03:02:30;12.97;;;7.63;;
54460;SDS011;69977;49.414;11.010;2024-01-10T03:04:56;11.20;;;7.37;;
54460;SDS011;69977;49.414;11.010;2024-01-10T03:07:22;16.90;;;7.20;;
54460;SDS011;69977;49.414;11.010;2024-01-10T03:09:50;11.60;;;6.97;;
54460;SDS011;69977;49.414;11.010;2024-01-10T03:12:16;14.67;;;8.20;;
54460;SDS011;69977;49.414;11.010;2024-01-10T03:14:41;9.90;;;7.27;;
54460;SDS011;69977;49.414;11.010;2024-01-10T03:17:07;16.23;;;8.03;;
54460;SDS011;69977;49.414;11.010;2024-01-10T03:19:33;13.27;;;7.67;;
54460;SDS011;69977;49.414;11.010;2024-01-10T03:21:59;15.93;;;8.23;;
54460;SDS011;69977;49.414;11.010;2024-01-10T03:24:25;12.77;;;8.00;;
54460;SDS011;69977;49.414;11.010;2024-01-10T03:26:52;12.97;;;7.50;;
54460;SDS011;69977;49.414;11.010;2024-01-10T03:29:18;12.90;;;7.37;;
54460;SDS011;69977;49.414;11.010;2024-01-10T03:31:43;10.77;;;6.63;;
54460;SDS011;69977;49.414;11.010;2024-01-10T03:34:09;11.57;;;6.97;;
54460;SDS011;69977;49.414;11.010;2024-01-10T03:36:35;11.90;;;7.10;;
54460;SDS011;69977;49.414;11.010;2024-01-10T03:39:01;15.30;;;7.83;;
54460;SDS011;69977;49.414;11.010;2024-01-10T03:41:27;12.67;;;7.07;;
54460;SDS011;69977;49.414;11.010;2024-01-10T03:43:52;13.23;;;7.43;;
54460;SDS011;69977;49.414;11.010;2024-01-10T03:46:19;12.83;;;7.63;;
54460;SDS011;69977;49.414;11.010;2024-01-10T03:48:45;12.80;;;7.43;;
54460;SDS011;69977;49.414;11.010;2024-01-10T03:51:18;13.33;;;7.27;;
54460;SDS011;69977;49.414;11.010;2024-01-10T03:53:44;11.83;;;7.37;;
54460;SDS011;69977;49.414;11.010;2024-01-10T03:56:11;12.27;;;6.80;;
54460;SDS011;69977;49.414;11.010;2024-01-10T03:58:37;12.37;;;7.10;;
54460;SDS011;69977;49.414;11.010;2024-01-10T04:01:06;11.67;;;6.83;;
54460;SDS011;69977;49.414;11.010;2024-01-10T04:03:33;12.90;;;7.70;;
54460;SDS011;69977;49.414;11.010;2024-01-10T04:06:00;14.73;;;8.47;;
54460;SDS011;69977;49.414;11.010;2024-01-10T04:08:26;13.73;;;6.43;;
54460;SDS011;69977;49.414;11.010;2024-01-10T04:10:52;11.93;;;7.07;;
54460;SDS011;69977;49.414;11.010;2024-01-10T04:13:18;14.73;;;7.00;;
54460;SDS011;69977;49.414;11.010;2024-01-10T04:15:44;10.60;;;6.40;;
54460;SDS011;69977;49.414;11.010;2024-01-10T04:18:10;12.97;;;7.60;;
54460;SDS011;69977;49.414;11.010;2024-01-10T04:20:35;12.07;;;7.27;;
54460;SDS011;69977;49.414;11.010;2024-01-10T04:23:01;13.53;;;7.30;;
54460;SDS011;69977;49.414;11.010;2024-01-10T04:25:27;13.53;;;7.60;;
54460;SDS011;69977;49.414;11.010;2024-01-10T04:27:53;12.93;;;7.30;;
54460;SDS011;69977;49.414;11.010;2024-01-10T04:30:20;13.47;;;6.87;;
54460;SDS011;69977;49.414;11.010;2024-01-10T04:32:46;11.23;;;6.07;;
54460;SDS011;69977;49.414;11.010;2024-01-10T04:35:12;13.27;;;7.10;;
54460;SDS011;69977;49.414;11.010;2024-01-10T04:37:38;16.37;;;7.73;;
54460;SDS011;69977;49.414;11.010;2024-01-10T04:40:04;14.60;;;8.23;;
54460;SDS011;69977;49.414;11.010;2024-01-10T04:42:30;12.87;;;6.87;;
54460;SDS011;69977;49.414;11.010;2024-01-10T04:44:56;16.70;;;7.60;;
54460;SDS011;69977;49.414;11.010;2024-01-10T04:47:22;13.00;;;6.80;;
54460;SDS011;69977;49.414;11.010;2024-01-10T04:49:48;15.03;;;7.90;;
54460;SDS011;69977;49.414;11.010;2024-01-10T04:52:14;16.30;;;7.20;;
54460;SDS011;69977;49.414;11.010;2024-01-10T04:54:40;17.93;;;7.53;;
54460;SDS011;69977;49.414;11.010;2024-01-10T04:57:05;11.70;;;7.03;;
54460;SDS011;69977;49.414;11.010;2024-01-10T04:59:32;15.03;;;7.70;;
54460;SDS011;69977;49.414;11.010;2024-01-10T05:01:58;12.13;;;6.23;;
54460;SDS011;69977;49.414;11.010;2024-01-10T05:04:24;12.83;;;7.27;;
54460;SDS011;69977;49.414;11.010;2024-01-10T05:06:50;13.03;;;7.40;;
54460;SDS011;69977;49.414;11.010;2024-01-10T05:09:16;13.13;;;6.73;;
54460;SDS011;69977;49.414;11.010;2024-01-10T05:11:42;12.10;;;7.47;;
54460;SDS011;69977;49.414;11.010;2024-01-10T05:14:08;14.13;;;7.83;;
54460;SDS011;69977;49.414;11.010;2024-01-10T05:16:33;19.80;;;7.13;;
54460;SDS011;69977;49.414;11.010;2024-01-10T05:19:02;12.63;;;7.57;;
54460;SDS011;69977;49.414;11.010;2024-01-10T05:21:31;14.90;;;8.23;;
54460;SDS011;69977;49.414;11.010;2024-01-10T05:23:57;10.73;;;6.30;;
54460;SDS011;69977;49.414;11.010;2024-01-10T05:26:23;14.40;;;6.93;;
54460;SDS011;69977;49.414;11.010;2024-01-10T05:28:49;13.53;;;7.30;;
54460;SDS011;69977;49.414;11.010;2024-01-10T05:31:16;10.87;;;6.37;;
54460;SDS011;69977;49.414;11.010;2024-01-10T05:33:41;10.27;;;6.73;;
54460;SDS011;69977;49.414;11.010;2024-01-10T05:36:08;10.87;;;6.90;;
54460;SDS011;69977;49.414;11.010;2024-01-10T05:38:37;12.77;;;7.23;;
54460;SDS011;69977;49.414;11.010;2024-01-10T05:41:03;12.87;;;7.03;;
54460;SDS011;69977;49.414;11.010;2024-01-10T05:43:29;11.67;;;7.07;;
54460;SDS011;69977;49.414;11.010;2024-01-10T05:45:54;15.37;;;7.43;;
54460;SDS011;69977;49.414;11.010;2024-01-10T05:48:20;15.13;;;7.63;;
54460;SDS011;69977;49.414;11.010;2024-01-10T05:50:46;14.57;;;7.87;;
54460;SDS011;69977;49.414;11.010;2024-01-10T05:53:12;12.13;;;7.10;;
54460;SDS011;69977;49.414;11.010;2024-01-10T05:55:42;11.40;;;6.77;;
54460;SDS011;69977;49.414;11.010;2024-01-10T05:58:08;14.23;;;7.90;;
54460;SDS011;69977;49.414;11.010;2024-01-10T06:00:35;10.87;;;6.83;;
54460;SDS011;69977;49.414;11.010;2024-01-10T06:03:00;13.47;;;7.97;;
54460;SDS011;69977;49.414;11.010;2024-01-10T06:05:26;14.90;;;8.20;;
54460;SDS011;69977;49.414;11.010;2024-01-10T06:07:52;14.23;;;7.57;;
54460;SDS011;69977;49.414;11.010;2024-01-10T06:10:18;16.10;;;8.27;;
54460;SDS011;69977;49.414;11.010;2024-01-10T06:12:43;15.80;;;7.77;;
54460;SDS011;69977;49.414;11.010;2024-01-10T06:15:09;13.47;;;7.67;;
54460;SDS011;69977;49.414;11.010;2024-01-10T06:17:35;13.37;;;6.60;;
54460;SDS011;69977;49.414;11.010;2024-01-10T06:20:01;11.40;;;6.90;;
54460;SDS011;69977;49.414;11.010;2024-01-10T06:22:28;12.60;;;7.27;;
54460;SDS011;69977;49.414;11.010;2024-01-10T06:24:54;12.80;;;6.97;;
54460;SDS011;69977;49.414;11.010;2024-01-10T06:27:20;12.00;;;7.53;;
54460;SDS011;69977;49.414;11.010;2024-01-10T06:29:46;14.77;;;7.50;;
54460;SDS011;69977;49.414;11.010;2024-01-10T06:32:12;13.07;;;8.07;;
54460;SDS011;69977;49.414;11.010;2024-01-10T06:34:39;13.83;;;7.23;;
54460;SDS011;69977;49.414;11.010;2024-01-10T06:37:05;13.10;;;7.47;;
54460;SDS011;69977;49.414;11.010;2024-01-10T06:39:32;13.20;;;7.50;;
54460;SDS011;69977;49.414;11.010;2024-01-10T06:41:58;12.63;;;6.67;;
54460;SDS011;69977;49.414;11.010;2024-01-10T06:44:24;12.90;;;6.63;;
54460;SDS011;69977;49.414;11.010;2024-01-10T06:46:53;16.77;;;7.97;;
54460;SDS011;69977;49.414;11.010;2024-01-10T06:49:18;12.63;;;7.77;;
54460;SDS011;69977;49.414;11.010;2024-01-10T06:51:44;14.43;;;7.73;;
54460;SDS011;69977;49.414;11.010;2024-01-10T06:54:10;13.93;;;7.83;;
54460;SDS011;69977;49.414;11.010;2024-01-10T06:56:36;13.30;;;7.47;;
54460;SDS011;69977;49.414;11.010;2024-01-10T06:59:02;20.17;;;8.23;;
54460;SDS011;69977;49.414;11.010;2024-01-10T07:01:28;15.67;;;7.70;;
54460;SDS011;69977;49.414;11.010;2024-01-10T07:03:54;15.63;;;7.80;;
54460;SDS011;69977;49.414;11.010;2024-01-10T07:06:20;14.77;;;7.53;;
54460;SDS011;69977;49.414;11.010;2024-01-10T07:08:47;13.87;;;8.37;;
54460;SDS011;69977;49.414;11.010;2024-01-10T07:11:14;16.13;;;7.83;;
54460;SDS011;69977;49.414;11.010;2024-01-10T07:13:44;17.40;;;7.33;;
54460;SDS011;69977;49.414;11.010;2024-01-10T07:16:11;13.70;;;7.83;;
54460;SDS011;69977;49.414;11.010;2024-01-10T07:18:40;13.90;;;6.83;;
54460;SDS011;69977;49.414;11.010;2024-01-10T07:21:06;14.07;;;8.07;;
54460;SDS011;69977;49.414;11.010;2024-01-10T07:23:32;19.83;;;8.03;;
54460;SDS011;69977;49.414;11.010;2024-01-10T07:25:59;18.33;;;8.00;;
54460;SDS011;69977;49.414;11.010;2024-01-10T07:28:25;13.87;;;8.60;;
54460;SDS011;69977;49.414;11.010;2024-01-10T07:30:51;12.03;;;7.07;;
54460;SDS011;69977;49.414;11.010;2024-01-10T07:33:16;15.27;;;8.00;;
54460;SDS011;69977;49.414;11.010;2024-01-10T07:35:43;11.47;;;6.90;;
54460;SDS011;69977;49.414;11.010;2024-01-10T07:38:09;25.47;;;8.57;;
54460;SDS011;69977;49.414;11.010;2024-01-10T07:40:35;19.73;;;9.17;;
54460;SDS011;69977;49.414;11.010;2024-01-10T07:43:01;14.80;;;7.70;;
54460;SDS011;69977;49.414;11.010;2024-01-10T07:45:27;17.27;;;8.20;;
54460;SDS011;69977;49.414;11.010;2024-01-10T07:47:53;18.70;;;7.97;;
54460;SDS011;69977;49.414;11.010;2024-01-10T07:50:19;18.80;;;7.83;;
54460;SDS011;69977;49.414;11.010;2024-01-10T07:52:45;11.07;;;7.33;;
54460;SDS011;69977;49.414;11.010;2024-01-10T07:55:11;18.93;;;9.87;;
54460;SDS011;69977;49.414;11.010;2024-01-10T07:57:38;14.73;;;8.53;;
54460;SDS011;69977;49.414;11.010;2024-01-10T08:00:04;13.90;;;8.40;;
54460;SDS011;69977;49.414;11.010;2024-01-10T08:02:33;14.70;;;7.73;;
54460;SDS011;69977;49.414;11.010;2024-01-10T08:05:00;11.87;;;7.93;;
54460;SDS011;69977;49.414;11.010;2024-01-10T08:07:30;14.87;;;7.97;;
54460;SDS011;69977;49.414;11.010;2024-01-10T08:09:58;17.60;;;8.03;;
54460;SDS011;69977;49.414;11.010;2024-01-10T08:12:25;16.90;;;8.63;;
54460;SDS011;69977;49.414;11.010;2024-01-10T08:14:50;15.50;;;8.30;;
54460;SDS011;69977;49.414;11.010;2024-01-10T08:17:16;14.40;;;8.17;;
54460;SDS011;69977;49.414;11.010;2024-01-10T08:19:42;14.33;;;8.33;;
54460;SDS011;69977;49.414;11.010;2024-01-10T08:22:08;14.70;;;7.80;;
54460;SDS011;69977;49.414;11.010;2024-01-10T08:24:34;14.30;;;8.70;;
54460;SDS011;69977;49.414;11.010;2024-01-10T08:27:00;18.30;;;8.93;;
54460;SDS011;69977;49.414;11.010;2024-01-10T08:29:25;13.80;;;8.03;;
54460;SDS011;69977;49.414;11.010;2024-01-10T08:31:56;13.63;;;8.30;;
54460;SDS011;69977;49.414;11.010;2024-01-10T08:34:23;17.20;;;9.20;;
54460;SDS011;69977;49.414;11.010;2024-01-10T08:36:49;19.03;;;10.23;;
54460;SDS011;69977;49.414;11.010;2024-01-10T08:39:18;19.10;;;9.73;;
54460;SDS011;69977;49.414;11.010;2024-01-10T08:41:44;15.60;;;10.57;;
54460;SDS011;69977;49.414;11.010;2024-01-10T08:44:10;14.67;;;8.37;;
54460;SDS011;69977;49.414;11.010;2024-01-10T08:46:36;13.70;;;9.27;;
54460;SDS011;69977;49.414;11.010;2024-01-10T08:49:02;17.83;;;10.40;;
54460;SDS011;69977;49.414;11.010;2024-01-10T08:51:28;14.87;;;8.87;;
54460;SDS011;69977;49.414;11.010;2024-01-10T08:53:55;14.70;;;8.67;;
54460;SDS011;69977;49.414;11.010;2024-01-10T08:56:22;16.77;;;9.50;;
54460;SDS011;69977;49.414;11.010;2024-01-10T08:58:48;12.60;;;8.93;;
54460;SDS011;69977;49.414;11.010;2024-01-10T09:01:14;13.97;;;8.30;;
54460;SDS011;69977;49.414;11.010;2024-01-10T09:03:39;18.33;;;8.83;;
54460;SDS011;69977;49.414;11.010;2024-01-10T09:06:05;14.40;;;9.27;;
54460;SDS011;69977;49.414;11.010;2024-01-10T09:08:33;20.87;;;9.33;;
54460;SDS011;69977;49.414;11.010;2024-01-10T09:10:59;15.37;;;9.87;;
54460;SDS011;69977;49.414;11.010;2024-01-10T09:13:25;15.30;;;9.77;;
54460;SDS011;69977;49.414;11.010;2024-01-10T09:15:51;17.80;;;10.00;;
54460;SDS011;69977;49.414;11.010;2024-01-10T09:18:17;18.17;;;9.43;;
54460;SDS011;69977;49.414;11.010;2024-01-10T09:20:43;14.47;;;10.20;;
54460;SDS011;69977;49.414;11.010;2024-01-10T09:23:09;19.73;;;11.00;;
54460;SDS011;69977;49.414;11.010;2024-01-10T09:25:36;21.47;;;10.67;;
54460;SDS011;69977;49.414;11.010;2024-01-10T09:28:03;19.23;;;11.03;;
54460;SDS011;69977;49.414;11.010;2024-01-10T09:30:29;17.20;;;11.47;;
54460;SDS011;69977;49.414;11.010;2024-01-10T09:32:55;15.70;;;10.13;;
54460;SDS011;69977;49.414;11.010;2024-01-10T09:35:21;18.37;;;10.73;;
54460;SDS011;69977;49.414;11.010;2024-01-10T09:37:48;19.43;;;10.97;;
54460;SDS011;69977;49.414;11.010;2024-01-10T09:40:15;17.00;;;9.60;;
54460;SDS011;69977;49.414;11.010;2024-01-10T09:42:43;15.87;;;9.00;;
54460;SDS011;69977;49.414;11.010;2024-01-10T09:45:09;18.03;;;9.03;;
54460;SDS011;69977;49.414;11.010;2024-01-10T09:47:39;17.43;;;10.57;;
54460;SDS011;69977;49.414;11.010;2024-01-10T09:50:08;14.77;;;8.70;;
54460;SDS011;69977;49.414;11.010;2024-01-10T09:52:50;15.10;;;9.07;;
54460;SDS011;69977;49.414;11.010;2024-01-10T09:55:22;13.63;;;9.07;;
54460;SDS011;69977;49.414;11.010;2024-01-10T09:57:51;18.70;;;9.50;;
54460;SDS011;69977;49.414;11.010;2024-01-10T10:00:17;13.50;;;7.80;;
54460;SDS011;69977;49.414;11.010;2024-01-10T10:02:43;19.77;;;9.43;;
54460;SDS011;69977;49.414;11.010;2024-01-10T10:05:13;14.83;;;9.70;;
54460;SDS011;69977;49.414;11.010;2024-01-10T10:07:47;16.23;;;8.77;;
54460;SDS011;69977;49.414;11.010;2024-01-10T10:10:14;18.33;;;9.53;;
54460;SDS011;69977;49.414;11.010;2024-01-10T10:12:50;14.50;;;9.33;;
54460;SDS011;69977;49.414;11.010;2024-01-10T10:15:23;16.37;;;8.53;;
54460;SDS011;69977;49.414;11.010;2024-01-10T10:17:53;17.00;;;9.37;;
54460;SDS011;69977;49.414;11.010;2024-01-10T10:23:00;14.97;;;9.53;;
54460;SDS011;69977;49.414;11.010;2024-01-10T10:25:34;14.90;;;8.77;;
54460;SDS011;69977;49.414;11.010;2024-01-10T10:28:07;14.83;;;8.93;;
54460;SDS011;69977;49.414;11.010;2024-01-10T10:30:33;15.73;;;10.43;;
54460;SDS011;69977;49.414;11.010;2024-01-10T10:33:00;22.57;;;10.33;;
54460;SDS011;69977;49.414;11.010;2024-01-10T10:35:27;15.40;;;8.53;;
54460;SDS011;69977;49.414;11.010;2024-01-10T10:37:53;16.33;;;9.83;;
54460;SDS011;69977;49.414;11.010;2024-01-10T10:40:19;16.57;;;9.57;;
54460;SDS011;69977;49.414;11.010;2024-01-10T10:42:47;12.83;;;9.00;;
54460;SDS011;69977;49.414;11.010;2024-01-10T10:45:15;19.60;;;9.47;;
54460;SDS011;69977;49.414;11.010;2024-01-10T10:47:50;17.20;;;9.33;;
54460;SDS011;69977;49.414;11.010;2024-01-10T10:50:33;14.93;;;9.27;;
54460;SDS011;69977;49.414;11.010;2024-01-10T10:53:01;16.03;;;9.43;;
54460;SDS011;69977;49.414;11.010;2024-01-10T10:55:28;20.43;;;9.97;;
54460;SDS011;69977;49.414;11.010;2024-01-10T10:57:55;16.27;;;9.83;;
54460;SDS011;69977;49.414;11.010;2024-01-10T11:00:23;15.70;;;9.87;;
54460;SDS011;69977;49.414;11.010;2024-01-10T11:02:55;15.27;;;10.27;;
54460;SDS011;69977;49.414;11.010;2024-01-10T11:05:24;15.93;;;10.07;;
54460;SDS011;69977;49.414;11.010;2024-01-10T11:07:51;17.70;;;10.47;;
54460;SDS011;69977;49.414;11.010;2024-01-10T11:10:18;17.27;;;10.37;;
54460;SDS011;69977;49.414;11.010;2024-01-10T11:13:08;15.80;;;10.63;;
54460;SDS011;69977;49.414;11.010;2024-01-10T11:24:30;16.20;;;9.60;;
54460;SDS011;69977;49.414;11.010;2024-01-10T11:27:13;15.90;;;9.43;;
54460;SDS011;69977;49.414;11.010;2024-01-10T11:29:41;14.57;;;9.77;;
54460;SDS011;69977;49.414;11.010;2024-01-10T11:32:17;16.50;;;9.80;;
54460;SDS011;69977;49.414;11.010;2024-01-10T11:34:57;14.20;;;8.57;;
54460;SDS011;69977;49.414;11.010;2024-01-10T11:37:27;19.27;;;10.00;;
54460;SDS011;69977;49.414;11.010;2024-01-10T11:40:03;15.03;;;9.13;;
54460;SDS011;69977;49.414;11.010;2024-01-10T11:42:40;15.13;;;9.83;;
54460;SDS011;69977;49.414;11.010;2024-01-10T11:45:07;14.10;;;9.00;;
54460;SDS011;69977;49.414;11.010;2024-01-10T11:47:33;16.83;;;9.13;;
54460;SDS011;69977;49.414;11.010;2024-01-10T11:50:01;15.90;;;9.70;;
54460;SDS011;69977;49.414;11.010;2024-01-10T11:52:33;17.67;;;10.07;;
54460;SDS011;69977;49.414;11.010;2024-01-10T11:55:01;13.90;;;8.90;;
54460;SDS011;69977;49.414;11.010;2024-01-10T11:57:29;14.50;;;9.60;;
54460;SDS011;69977;49.414;11.010;2024-01-10T11:59:57;14.03;;;9.77;;
54460;SDS011;69977;49.414;11.010;2024-01-10T12:02:30;17.33;;;9.87;;
54460;SDS011;69977;49.414;11.010;2024-01-10T12:04:56;17.53;;;9.67;;
54460;SDS011;69977;49.414;11.010;2024-01-10T12:07:22;14.50;;;8.90;;
54460;SDS011;69977;49.414;11.010;2024-01-10T12:09:48;14.63;;;9.60;;
54460;SDS011;69977;49.414;11.010;2024-01-10T12:12:15;14.47;;;10.47;;
54460;SDS011;69977;49.414;11.010;2024-01-10T12:14:41;16.20;;;9.27;;
54460;SDS011;69977;49.414;11.010;2024-01-10T12:17:11;12.83;;;8.97;;
54460;SDS011;69977;49.414;11.010;2024-01-10T12:19:37;12.67;;;9.17;;
54460;SDS011;69977;49.414;11.010;2024-01-10T12:22:06;16.60;;;10.37;;
54460;SDS011;69977;49.414;11.010;2024-01-10T12:24:32;15.50;;;9.73;;
54460;SDS011;69977;49.414;11.010;2024-01-10T12:26:58;14.97;;;10.40;;
54460;SDS011;69977;49.414;11.010;2024-01-10T12:29:24;14.30;;;9.93;;
54460;SDS011;69977;49.414;11.010;2024-01-10T12:31:51;15.83;;;10.30;;
54460;SDS011;69977;49.414;11.010;2024-01-10T12:34:18;17.80;;;10.50;;
54460;SDS011;69977;49.414;11.010;2024-01-10T12:36:46;14.97;;;9.40;;
54460;SDS011;69977;49.414;11.010;2024-01-10T12:39:12;13.70;;;10.17;;
54460;SDS011;69977;49.414;11.010;2024-01-10T12:41:40;18.23;;;10.10;;
54460;SDS011;69977;49.414;11.010;2024-01-10T12:44:06;16.07;;;10.30;;
54460;SDS011;69977;49.414;11.010;2024-01-10T12:46:32;16.63;;;10.17;;
54460;SDS011;69977;49.414;11.010;2024-01-10T12:51:26;15.27;;;9.77;;
54460;SDS011;69977;49.414;11.010;2024-01-10T12:53:54;14.73;;;9.73;;
54460;SDS011;69977;49.414;11.010;2024-01-10T12:56:21;17.20;;;9.77;;
54460;SDS011;69977;49.414;11.010;2024-01-10T12:58:47;14.87;;;9.00;;
54460;SDS011;69977;49.414;11.010;2024-01-10T13:01:13;13.80;;;10.17;;
54460;SDS011;69977;49.414;11.010;2024-01-10T13:03:39;15.93;;;10.83;;
54460;SDS011;69977;49.414;11.010;2024-01-10T13:06:05;12.83;;;9.10;;
54460;SDS011;69977;49.414;11.010;2024-01-10T13:08:31;11.87;;;9.70;;
54460;SDS011;69977;49.414;11.010;2024-01-10T13:10:59;13.43;;;9.73;;
54460;SDS011;69977;49.414;11.010;2024-01-10T13:13:26;15.43;;;9.50;;
54460;SDS011;69977;49.414;11.010;2024-01-10T13:15:51;15.00;;;10.00;;
54460;SDS011;69977;49.414;11.010;2024-01-10T13:18:18;16.20;;;10.37;;
54460;SDS011;69977;49.414;11.010;2024-01-10T13:20:45;15.27;;;10.33;;
54460;SDS011;69977;49.414;11.010;2024-01-10T13:23:11;14.03;;;9.70;;
54460;SDS011;69977;49.414;11.010;2024-01-10T13:25:36;14.53;;;9.40;;
54460;SDS011;69977;49.414;11.010;2024-01-10T13:28:05;15.53;;;9.90;;
54460;SDS011;69977;49.414;11.010;2024-01-10T13:30:31;16.50;;;9.37;;
54460;SDS011;69977;49.414;11.010;2024-01-10T13:32:57;13.63;;;9.93;;
54460;SDS011;69977;49.414;11.010;2024-01-10T13:35:23;13.67;;;9.40;;
54460;SDS011;69977;49.414;11.010;2024-01-10T13:37:49;14.10;;;9.93;;
54460;SDS011;69977;49.414;11.010;2024-01-10T13:40:15;14.37;;;10.47;;
54460;SDS011;69977;49.414;11.010;2024-01-10T13:42:42;14.23;;;10.10;;
54460;SDS011;69977;49.414;11.010;2024-01-10T13:45:09;12.77;;;9.50;;
54460;SDS011;69977;49.414;11.010;2024-01-10T13:47:39;15.37;;;9.73;;
54460;SDS011;69977;49.414;11.010;2024-01-10T13:50:05;14.40;;;9.93;;
54460;SDS011;69977;49.414;11.010;2024-01-10T13:52:32;14.43;;;10.60;;
54460;SDS011;69977;49.414;11.010;2024-01-10T13:54:59;17.60;;;10.60;;
54460;SDS011;69977;49.414;11.010;2024-01-10T13:57:25;14.03;;;10.37;;
54460;SDS011;69977;49.414;11.010;2024-01-10T13:59:51;15.43;;;10.00;;
54460;SDS011;69977;49.414;11.010;2024-01-10T14:02:21;13.30;;;9.17;;
54460;SDS011;69977;49.414;11.010;2024-01-10T14:04:47;14.47;;;9.87;;
54460;SDS011;69977;49.414;11.010;2024-01-10T14:07:13;14.03;;;9.43;;
54460;SDS011;69977;49.414;11.010;2024-01-10T14:09:39;13.47;;;9.00;;
54460;SDS011;69977;49.414;11.010;2024-01-10T14:12:05;16.77;;;10.47;;
54460;SDS011;69977;49.414;11.010;2024-01-10T14:14:31;19.53;;;10.33;;
54460;SDS011;69977;49.414;11.010;2024-01-10T14:17:00;12.60;;;9.13;;
54460;SDS011;69977;49.414;11.010;2024-01-10T14:19:26;13.73;;;9.37;;
54460;SDS011;69977;49.414;11.010;2024-01-10T14:21:52;14.73;;;10.53;;
54460;SDS011;69977;49.414;11.010;2024-01-10T14:24:18;13.87;;;10.17;;
54460;SDS011;69977;49.414;11.010;2024-01-10T14:26:44;14.17;;;10.00;;
54460;SDS011;69977;49.414;11.010;2024-01-10T14:29:09;21.00;;;12.83;;
54460;SDS011;69977;49.414;11.010;2024-01-10T14:31:36;20.70;;;12.53;;
54460;SDS011;69977;49.414;11.010;2024-01-10T14:34:02;15.37;;;11.00;;
54460;SDS011;69977;49.414;11.010;2024-01-10T14:36:27;15.47;;;10.77;;